sensor_id;sensor_type;location;lat;lon;timestamp;pressure;altitude;pressure_sealevel;temperature;humidity
77574;BME280;66710;48.868;9.080;2023-04-03T00:01:00;98791.13;;;2.63;71.22
77574;BME280;66710;48.868;9.080;2023-04-03T00:03:25;98787.59;;;2.62;71.68
77574;BME280;66710;48.868;9.080;2023-04-03T00:05:50;98794.41;;;2.58;71.26
77574;BME280;66710;48.868;9.080;2023-04-03T00:08:16;98788.66;;;2.61;71.40
77574;BME280;66710;48.868;9.080;2023-04-03T00:10:41;98797.34;;;2.63;71.09
77574;BME280;66710;48.868;9.080;2023-04-03T00:13:07;98792.75;;;2.57;70.95
77574;BME280;66710;48.868;9.080;2023-04-03T00:15:34;98800.63;;;2.59;71.72
77574;BME280;66710;48.868;9.080;2023-04-03T00:17:59;98796.28;;;2.58;72.08
77574;BME280;66710;48.868;9.080;2023-04-03T00:20:25;98800.00;;;2.57;71.84
77574;BME280;66710;48.868;9.080;2023-04-03T00:22:51;98797.31;;;2.57;71.58
77574;BME280;66710;48.868;9.080;2023-04-03T00:25:16;98794.22;;;2.60;71.49
77574;BME280;66710;48.868;9.080;2023-04-03T00:27:41;98796.06;;;2.59;71.25
77574;BME280;66710;48.868;9.080;2023-04-03T00:30:15;98794.63;;;2.57;71.10
77574;BME280;66710;48.868;9.080;2023-04-03T00:32:41;98796.28;;;2.58;70.86
77574;BME280;66710;48.868;9.080;2023-04-03T00:35:07;98798.31;;;2.56;70.63
77574;BME280;66710;48.868;9.080;2023-04-03T00:37:32;98794.41;;;2.58;71.15
77574;BME280;66710;48.868;9.080;2023-04-03T00:39:57;98791.31;;;2.55;72.06
77574;BME280;66710;48.868;9.080;2023-04-03T00:42:24;98785.09;;;2.54;71.28
77574;BME280;66710;48.868;9.080;2023-04-03T00:47:17;98791.50;;;2.53;72.36
77574;BME280;66710;48.868;9.080;2023-04-03T00:49:43;98789.00;;;2.52;72.45
77574;BME280;66710;48.868;9.080;2023-04-03T00:52:13;98790.06;;;2.51;72.06
77574;BME280;66710;48.868;9.080;2023-04-03T00:54:41;98785.88;;;2.48;71.48
77574;BME280;66710;48.868;9.080;2023-04-03T00:57:08;98795.81;;;2.47;72.37
77574;BME280;66710;48.868;9.080;2023-04-03T00:59:36;98788.59;;;2.48;72.50
77574;BME280;66710;48.868;9.080;2023-04-03T01:02:03;98794.16;;;2.46;72.17
77574;BME280;66710;48.868;9.080;2023-04-03T01:04:36;98783.59;;;2.45;72.25
77574;BME280;66710;48.868;9.080;2023-04-03T01:07:08;98791.03;;;2.43;71.89
77574;BME280;66710;48.868;9.080;2023-04-03T01:09:34;98779.84;;;2.39;72.74
77574;BME280;66710;48.868;9.080;2023-04-03T01:12:24;98779.03;;;2.39;71.93
77574;BME280;66710;48.868;9.080;2023-04-03T01:14:54;98777.56;;;2.36;72.49
77574;BME280;66710;48.868;9.080;2023-04-03T01:20:02;98784.19;;;2.34;72.74
77574;BME280;66710;48.868;9.080;2023-04-03T01:25:39;98774.88;;;2.30;72.67
77574;BME280;66710;48.868;9.080;2023-04-03T01:28:06;98782.28;;;2.27;72.46
77574;BME280;66710;48.868;9.080;2023-04-03T01:30:36;98784.97;;;2.27;73.16
77574;BME280;66710;48.868;9.080;2023-04-03T01:33:03;98787.88;;;2.26;72.66
77574;BME280;66710;48.868;9.080;2023-04-03T01:35:28;98791.56;;;2.25;73.13
77574;BME280;66710;48.868;9.080;2023-04-03T01:37:54;98790.56;;;2.26;73.02
77574;BME280;66710;48.868;9.080;2023-04-03T01:40:19;98793.69;;;2.30;72.31
77574;BME280;66710;48.868;9.080;2023-04-03T01:42:44;98798.22;;;2.29;72.16
77574;BME280;66710;48.868;9.080;2023-04-03T01:45:10;98791.19;;;2.28;72.37
77574;BME280;66710;48.868;9.080;2023-04-03T01:47:35;98789.47;;;2.20;72.26
77574;BME280;66710;48.868;9.080;2023-04-03T01:50:01;98784.75;;;2.22;71.66
77574;BME280;66710;48.868;9.080;2023-04-03T01:52:26;98793.66;;;2.23;71.82
77574;BME280;66710;48.868;9.080;2023-04-03T01:54:51;98793.03;;;2.21;72.92
77574;BME280;66710;48.868;9.080;2023-04-03T01:57:17;98797.78;;;2.25;72.81
77574;BME280;66710;48.868;9.080;2023-04-03T01:59:42;98795.47;;;2.16;72.99
77574;BME280;66710;48.868;9.080;2023-04-03T02:02:07;98798.16;;;2.16;72.53
77574;BME280;66710;48.868;9.080;2023-04-03T02:04:32;98803.34;;;2.17;72.37
77574;BME280;66710;48.868;9.080;2023-04-03T02:06:58;98793.59;;;2.16;73.09
77574;BME280;66710;48.868;9.080;2023-04-03T02:09:23;98799.41;;;2.20;72.40
77574;BME280;66710;48.868;9.080;2023-04-03T02:11:48;98797.09;;;2.17;72.58
77574;BME280;66710;48.868;9.080;2023-04-03T02:14:14;98801.47;;;2.18;71.72
77574;BME280;66710;48.868;9.080;2023-04-03T02:16:39;98802.09;;;2.20;72.04
77574;BME280;66710;48.868;9.080;2023-04-03T02:19:04;98796.72;;;2.20;71.17
77574;BME280;66710;48.868;9.080;2023-04-03T02:21:30;98794.22;;;2.18;71.10
77574;BME280;66710;48.868;9.080;2023-04-03T02:23:55;98800.22;;;2.20;71.59
77574;BME280;66710;48.868;9.080;2023-04-03T02:26:21;98801.09;;;2.21;71.15
77574;BME280;66710;48.868;9.080;2023-04-03T02:28:46;98795.69;;;2.21;70.63
77574;BME280;66710;48.868;9.080;2023-04-03T02:31:12;98798.41;;;2.21;70.40
77574;BME280;66710;48.868;9.080;2023-04-03T02:33:37;98796.53;;;2.21;69.70
77574;BME280;66710;48.868;9.080;2023-04-03T02:36:04;98803.16;;;2.25;69.02
77574;BME280;66710;48.868;9.080;2023-04-03T02:38:30;98802.34;;;2.25;69.26
77574;BME280;66710;48.868;9.080;2023-04-03T02:41:06;98800.28;;;2.27;68.60
77574;BME280;66710;48.868;9.080;2023-04-03T02:43:32;98793.88;;;2.28;68.45
77574;BME280;66710;48.868;9.080;2023-04-03T02:45:57;98798.81;;;2.24;68.34
77574;BME280;66710;48.868;9.080;2023-04-03T02:48:23;98800.28;;;2.27;68.64
77574;BME280;66710;48.868;9.080;2023-04-03T02:50:48;98795.09;;;2.25;67.70
77574;BME280;66710;48.868;9.080;2023-04-03T02:53:14;98792.41;;;2.25;67.18
77574;BME280;66710;48.868;9.080;2023-04-03T02:55:40;98796.97;;;2.25;68.20
77574;BME280;66710;48.868;9.080;2023-04-03T02:58:05;98797.34;;;2.22;67.32
77574;BME280;66710;48.868;9.080;2023-04-03T03:00:31;98796.13;;;2.24;66.61
77574;BME280;66710;48.868;9.080;2023-04-03T03:02:56;98801.50;;;2.24;67.18
77574;BME280;66710;48.868;9.080;2023-04-03T03:05:21;98791.38;;;2.26;67.61
77574;BME280;66710;48.868;9.080;2023-04-03T03:07:47;98801.09;;;2.21;67.86
77574;BME280;66710;48.868;9.080;2023-04-03T03:10:12;98794.47;;;2.23;67.60
77574;BME280;66710;48.868;9.080;2023-04-03T03:12:37;98788.47;;;2.21;68.20
77574;BME280;66710;48.868;9.080;2023-04-03T03:15:03;98786.97;;;2.19;68.03
77574;BME280;66710;48.868;9.080;2023-04-03T03:17:28;98783.09;;;2.21;67.65
77574;BME280;66710;48.868;9.080;2023-04-03T03:19:53;98784.75;;;2.22;67.61
77574;BME280;66710;48.868;9.080;2023-04-03T03:22:19;98789.91;;;2.24;67.38
77574;BME280;66710;48.868;9.080;2023-04-03T03:24:44;98788.69;;;2.26;67.01
77574;BME280;66710;48.868;9.080;2023-04-03T03:27:10;98786.00;;;2.26;67.13
77574;BME280;66710;48.868;9.080;2023-04-03T03:29:35;98778.78;;;2.27;67.41
77574;BME280;66710;48.868;9.080;2023-04-03T03:32:00;98781.84;;;2.24;67.27
77574;BME280;66710;48.868;9.080;2023-04-03T03:34:25;98783.50;;;2.25;67.06
77574;BME280;66710;48.868;9.080;2023-04-03T03:36:51;98777.31;;;2.24;67.39
77574;BME280;66710;48.868;9.080;2023-04-03T03:39:16;98778.13;;;2.25;67.08
77574;BME280;66710;48.868;9.080;2023-04-03T03:41:41;98780.00;;;2.24;67.40
77574;BME280;66710;48.868;9.080;2023-04-03T03:44:06;98779.16;;;2.24;67.25
77574;BME280;66710;48.868;9.080;2023-04-03T03:46:32;98782.50;;;2.26;67.66
77574;BME280;66710;48.868;9.080;2023-04-03T03:48:57;98784.34;;;2.25;67.91
77574;BME280;66710;48.868;9.080;2023-04-03T03:51:22;98785.38;;;2.24;67.81
77574;BME280;66710;48.868;9.080;2023-04-03T03:53:48;98782.50;;;2.26;67.83
77574;BME280;66710;48.868;9.080;2023-04-03T03:56:13;98780.81;;;2.25;67.63
77574;BME280;66710;48.868;9.080;2023-04-03T03:58:38;98776.91;;;2.27;66.98
77574;BME280;66710;48.868;9.080;2023-04-03T04:01:05;98785.63;;;2.30;67.28
77574;BME280;66710;48.868;9.080;2023-04-03T04:03:31;98785.19;;;2.26;67.71
77574;BME280;66710;48.868;9.080;2023-04-03T04:05:56;98784.97;;;2.27;67.71
77574;BME280;66710;48.868;9.080;2023-04-03T04:08:22;98793.69;;;2.30;67.00
77574;BME280;66710;48.868;9.080;2023-04-03T04:10:47;98788.31;;;2.30;67.97
77574;BME280;66710;48.868;9.080;2023-04-03T04:13:13;98794.13;;;2.33;66.71
77574;BME280;66710;48.868;9.080;2023-04-03T04:15:38;98786.66;;;2.35;66.41
77574;BME280;66710;48.868;9.080;2023-04-03T04:18:03;98786.91;;;2.40;65.56
77574;BME280;66710;48.868;9.080;2023-04-03T04:20:29;98797.25;;;2.43;65.04
77574;BME280;66710;48.868;9.080;2023-04-03T04:22:54;98799.31;;;2.41;64.44
77574;BME280;66710;48.868;9.080;2023-04-03T04:25:19;98805.31;;;2.43;65.53
77574;BME280;66710;48.868;9.080;2023-04-03T04:27:45;98794.13;;;2.40;65.64
77574;BME280;66710;48.868;9.080;2023-04-03T04:30:10;98800.97;;;2.42;65.44
77574;BME280;66710;48.868;9.080;2023-04-03T04:32:36;98796.00;;;2.39;65.92
77574;BME280;66710;48.868;9.080;2023-04-03T04:35:02;98804.88;;;2.40;66.28
77574;BME280;66710;48.868;9.080;2023-04-03T04:37:28;98795.16;;;2.39;65.90
77574;BME280;66710;48.868;9.080;2023-04-03T04:39:54;98797.44;;;2.35;66.16
77574;BME280;66710;48.868;9.080;2023-04-03T04:42:19;98792.25;;;2.34;64.42
77574;BME280;66710;48.868;9.080;2023-04-03T04:44:44;98792.06;;;2.35;62.87
77574;BME280;66710;48.868;9.080;2023-04-03T04:47:10;98790.56;;;2.33;63.08
77574;BME280;66710;48.868;9.080;2023-04-03T04:49:35;98792.84;;;2.29;62.65
77574;BME280;66710;48.868;9.080;2023-04-03T04:52:01;98800.91;;;2.29;63.06
77574;BME280;66710;48.868;9.080;2023-04-03T04:54:26;98795.53;;;2.29;63.98
77574;BME280;66710;48.868;9.080;2023-04-03T04:56:51;98795.28;;;2.24;64.41
77574;BME280;66710;48.868;9.080;2023-04-03T04:59:17;98810.00;;;2.28;64.73
77574;BME280;66710;48.868;9.080;2023-04-03T05:01:42;98805.25;;;2.30;64.18
77574;BME280;66710;48.868;9.080;2023-04-03T05:04:07;98812.72;;;2.35;64.91
77574;BME280;66710;48.868;9.080;2023-04-03T05:06:32;98805.69;;;2.34;64.46
77574;BME280;66710;48.868;9.080;2023-04-03T05:09:00;98817.06;;;2.36;64.57
77574;BME280;66710;48.868;9.080;2023-04-03T05:11:26;98821.63;;;2.35;65.58
77574;BME280;66710;48.868;9.080;2023-04-03T05:13:51;98823.47;;;2.35;65.25
77574;BME280;66710;48.868;9.080;2023-04-03T05:16:17;98821.16;;;2.25;66.21
77574;BME280;66710;48.868;9.080;2023-04-03T05:18:42;98839.97;;;2.25;67.50
77574;BME280;66710;48.868;9.080;2023-04-03T05:21:07;98834.09;;;2.15;68.65
77574;BME280;66710;48.868;9.080;2023-04-03T05:23:33;98835.94;;;2.07;68.81
77574;BME280;66710;48.868;9.080;2023-04-03T05:25:58;98835.72;;;2.09;69.30
77574;BME280;66710;48.868;9.080;2023-04-03T05:28:23;98829.34;;;2.10;69.14
77574;BME280;66710;48.868;9.080;2023-04-03T05:30:56;98836.06;;;1.99;69.59
77574;BME280;66710;48.868;9.080;2023-04-03T05:33:23;98830.31;;;2.02;69.60
77574;BME280;66710;48.868;9.080;2023-04-03T05:35:48;98831.78;;;2.05;69.95
77574;BME280;66710;48.868;9.080;2023-04-03T05:38:14;98832.41;;;2.07;69.60
77574;BME280;66710;48.868;9.080;2023-04-03T05:40:40;98827.22;;;2.05;69.39
77574;BME280;66710;48.868;9.080;2023-04-03T05:43:05;98832.41;;;2.07;68.63
77574;BME280;66710;48.868;9.080;2023-04-03T05:45:30;98836.13;;;2.06;68.54
77574;BME280;66710;48.868;9.080;2023-04-03T05:47:56;98834.66;;;2.03;69.47
77574;BME280;66710;48.868;9.080;2023-04-03T05:50:21;98836.38;;;2.11;68.68
77574;BME280;66710;48.868;9.080;2023-04-03T05:52:48;98844.03;;;2.14;68.80
77574;BME280;66710;48.868;9.080;2023-04-03T05:55:14;98842.56;;;2.12;67.62
77574;BME280;66710;48.868;9.080;2023-04-03T05:57:40;98849.03;;;2.17;68.95
77574;BME280;66710;48.868;9.080;2023-04-03T06:00:07;98851.50;;;2.19;68.93
77574;BME280;66710;48.868;9.080;2023-04-03T06:02:34;98846.16;;;2.25;68.75
77574;BME280;66710;48.868;9.080;2023-04-03T06:05:00;98846.59;;;2.29;68.51
77574;BME280;66710;48.868;9.080;2023-04-03T06:07:26;98853.44;;;2.32;69.24
77574;BME280;66710;48.868;9.080;2023-04-03T06:09:54;98853.00;;;2.28;69.40
77574;BME280;66710;48.868;9.080;2023-04-03T06:12:20;98852.16;;;2.21;68.10
77574;BME280;66710;48.868;9.080;2023-04-03T06:14:46;98853.84;;;2.28;69.32
77574;BME280;66710;48.868;9.080;2023-04-03T06:17:12;98857.16;;;2.31;68.64
77574;BME280;66710;48.868;9.080;2023-04-03T06:19:38;98859.88;;;2.37;68.21
77574;BME280;66710;48.868;9.080;2023-04-03T06:22:03;98852.63;;;2.38;68.29
77574;BME280;66710;48.868;9.080;2023-04-03T06:24:30;98856.56;;;2.35;68.45
77574;BME280;66710;48.868;9.080;2023-04-03T06:26:56;98857.25;;;2.44;68.63
77574;BME280;66710;48.868;9.080;2023-04-03T06:29:22;98854.59;;;2.51;69.27
77574;BME280;66710;48.868;9.080;2023-04-03T06:31:48;98868.25;;;2.56;68.79
77574;BME280;66710;48.868;9.080;2023-04-03T06:34:13;98857.88;;;2.46;68.60
77574;BME280;66710;48.868;9.080;2023-04-03T06:36:39;98870.06;;;2.42;67.32
77574;BME280;66710;48.868;9.080;2023-04-03T06:39:05;98868.16;;;2.36;67.99
77574;BME280;66710;48.868;9.080;2023-04-03T06:41:31;98870.72;;;2.51;67.87
77574;BME280;66710;48.868;9.080;2023-04-03T06:43:56;98869.00;;;2.43;67.51
77574;BME280;66710;48.868;9.080;2023-04-03T06:46:23;98875.25;;;2.50;68.22
77574;BME280;66710;48.868;9.080;2023-04-03T06:48:49;98874.03;;;2.53;67.24
77574;BME280;66710;48.868;9.080;2023-04-03T06:51:23;98878.94;;;2.42;68.23
77574;BME280;66710;48.868;9.080;2023-04-03T06:53:50;98874.72;;;2.61;68.24
77574;BME280;66710;48.868;9.080;2023-04-03T06:56:16;98875.38;;;2.70;68.09
77574;BME280;66710;48.868;9.080;2023-04-03T06:58:42;98888.59;;;2.72;67.56
77574;BME280;66710;48.868;9.080;2023-04-03T07:01:09;98880.56;;;2.78;67.50
77574;BME280;66710;48.868;9.080;2023-04-03T07:03:35;98887.00;;;2.77;67.12
77574;BME280;66710;48.868;9.080;2023-04-03T07:06:01;98888.06;;;2.83;67.31
77574;BME280;66710;48.868;9.080;2023-04-03T07:08:26;98894.91;;;2.92;67.08
77574;BME280;66710;48.868;9.080;2023-04-03T07:10:51;98886.25;;;2.97;66.98
77574;BME280;66710;48.868;9.080;2023-04-03T07:13:17;98892.22;;;2.92;66.86
77574;BME280;66710;48.868;9.080;2023-04-03T07:15:42;98893.97;;;3.20;66.86
77574;BME280;66710;48.868;9.080;2023-04-03T07:18:07;98892.72;;;3.09;67.29
77574;BME280;66710;48.868;9.080;2023-04-03T07:20:33;98893.56;;;3.30;67.06
77574;BME280;66710;48.868;9.080;2023-04-03T07:22:58;98899.16;;;3.15;66.49
77574;BME280;66710;48.868;9.080;2023-04-03T07:25:23;98904.75;;;3.20;66.84
77574;BME280;66710;48.868;9.080;2023-04-03T07:27:49;98902.50;;;3.30;66.61
77574;BME280;66710;48.868;9.080;2023-04-03T07:30:14;98901.88;;;3.35;66.73
77574;BME280;66710;48.868;9.080;2023-04-03T07:32:40;98899.38;;;3.33;65.86
77574;BME280;66710;48.868;9.080;2023-04-03T07:35:05;98904.78;;;3.40;66.98
77574;BME280;66710;48.868;9.080;2023-04-03T07:37:31;98909.81;;;3.70;66.02
77574;BME280;66710;48.868;9.080;2023-04-03T07:39:57;98901.75;;;3.70;65.27
77574;BME280;66710;48.868;9.080;2023-04-03T07:42:24;98912.13;;;3.79;65.37
77574;BME280;66710;48.868;9.080;2023-04-03T07:44:49;98900.94;;;3.76;65.13
77574;BME280;66710;48.868;9.080;2023-04-03T07:47:14;98912.53;;;3.76;65.23
77574;BME280;66710;48.868;9.080;2023-04-03T07:49:42;98909.41;;;3.73;65.41
77574;BME280;66710;48.868;9.080;2023-04-03T07:52:08;98912.94;;;3.60;65.37
77574;BME280;66710;48.868;9.080;2023-04-03T07:54:34;98912.13;;;3.73;64.41
77574;BME280;66710;48.868;9.080;2023-04-03T07:57:00;98917.94;;;3.76;64.17
77574;BME280;66710;48.868;9.080;2023-04-03T07:59:25;98919.16;;;3.67;64.82
77574;BME280;66710;48.868;9.080;2023-04-03T08:01:50;98920.00;;;3.88;63.25
77574;BME280;66710;48.868;9.080;2023-04-03T08:04:16;98921.25;;;4.18;63.58
77574;BME280;66710;48.868;9.080;2023-04-03T08:06:41;98919.59;;;4.17;63.09
77574;BME280;66710;48.868;9.080;2023-04-03T08:09:06;98933.59;;;4.80;62.84
77574;BME280;66710;48.868;9.080;2023-04-03T08:11:32;98917.56;;;4.98;60.49
77574;BME280;66710;48.868;9.080;2023-04-03T08:13:57;98926.56;;;4.79;61.25
77574;BME280;66710;48.868;9.080;2023-04-03T08:16:24;98924.41;;;4.94;61.83
77574;BME280;66710;48.868;9.080;2023-04-03T08:18:52;98925.41;;;5.06;60.02
77574;BME280;66710;48.868;9.080;2023-04-03T08:21:17;98909.31;;;5.31;58.64
77574;BME280;66710;48.868;9.080;2023-04-03T08:23:42;98929.78;;;5.53;59.30
77574;BME280;66710;48.868;9.080;2023-04-03T08:26:19;98920.56;;;5.22;58.87
77574;BME280;66710;48.868;9.080;2023-04-03T08:28:46;98923.31;;;5.54;59.71
77574;BME280;66710;48.868;9.080;2023-04-03T08:31:15;98916.97;;;6.05;57.56
77574;BME280;66710;48.868;9.080;2023-04-03T08:33:40;98920.13;;;6.27;57.59
77574;BME280;66710;48.868;9.080;2023-04-03T08:36:07;98914.63;;;6.77;56.88
77574;BME280;66710;48.868;9.080;2023-04-03T08:38:39;98920.22;;;6.14;57.11
77574;BME280;66710;48.868;9.080;2023-04-03T08:41:15;98913.66;;;5.71;57.87
77574;BME280;66710;48.868;9.080;2023-04-03T08:46:18;98922.53;;;5.46;58.03
77574;BME280;66710;48.868;9.080;2023-04-03T08:48:48;98914.72;;;5.31;59.18
77574;BME280;66710;48.868;9.080;2023-04-03T08:51:18;98927.56;;;5.36;60.10
77574;BME280;66710;48.868;9.080;2023-04-03T08:54:03;98923.44;;;5.34;59.83
77574;BME280;66710;48.868;9.080;2023-04-03T08:56:31;98921.31;;;5.74;60.55
77574;BME280;66710;48.868;9.080;2023-04-03T08:59:04;98926.94;;;5.73;58.97
77574;BME280;66710;48.868;9.080;2023-04-03T09:01:36;98925.66;;;5.75;59.80
77574;BME280;66710;48.868;9.080;2023-04-03T09:04:05;98922.66;;;5.65;58.97
77574;BME280;66710;48.868;9.080;2023-04-03T09:06:35;98930.69;;;6.03;58.09
77574;BME280;66710;48.868;9.080;2023-04-03T09:09:14;98934.69;;;5.62;60.07
77574;BME280;66710;48.868;9.080;2023-04-03T09:17:35;98928.38;;;6.57;57.19
77574;BME280;66710;48.868;9.080;2023-04-03T09:22:34;98931.72;;;6.53;55.90
77574;BME280;66710;48.868;9.080;2023-04-03T09:25:17;98930.09;;;5.95;56.42
77574;BME280;66710;48.868;9.080;2023-04-03T09:27:43;98928.56;;;5.80;57.17
77574;BME280;66710;48.868;9.080;2023-04-03T09:30:17;98930.88;;;5.38;57.72
77574;BME280;66710;48.868;9.080;2023-04-03T09:32:46;98915.78;;;5.62;58.08
77574;BME280;66710;48.868;9.080;2023-04-03T09:35:33;98927.69;;;5.86;57.84
77574;BME280;66710;48.868;9.080;2023-04-03T09:38:00;98925.28;;;5.72;55.76
77574;BME280;66710;48.868;9.080;2023-04-03T09:42:52;98921.16;;;6.51;54.43
77574;BME280;66710;48.868;9.080;2023-04-03T09:45:36;98914.69;;;6.52;53.28
77574;BME280;66710;48.868;9.080;2023-04-03T09:48:08;98920.78;;;6.22;53.27
77574;BME280;66710;48.868;9.080;2023-04-03T09:50:35;98915.16;;;5.99;55.53
77574;BME280;66710;48.868;9.080;2023-04-03T09:53:07;98922.75;;;6.08;55.04
77574;BME280;66710;48.868;9.080;2023-04-03T09:55:50;98924.84;;;6.06;54.34
77574;BME280;66710;48.868;9.080;2023-04-03T09:58:29;98924.31;;;5.91;53.84
77574;BME280;66710;48.868;9.080;2023-04-03T10:00:57;98918.03;;;5.72;53.71
77574;BME280;66710;48.868;9.080;2023-04-03T10:03:36;98917.31;;;5.83;53.97
77574;BME280;66710;48.868;9.080;2023-04-03T10:06:22;98917.47;;;5.88;54.91
77574;BME280;66710;48.868;9.080;2023-04-03T10:12:05;98915.00;;;5.55;52.43
77574;BME280;66710;48.868;9.080;2023-04-03T10:14:34;98913.97;;;5.88;52.22
77574;BME280;66710;48.868;9.080;2023-04-03T10:17:22;98919.16;;;5.89;52.54
77574;BME280;66710;48.868;9.080;2023-04-03T10:22:46;98910.09;;;5.77;50.29
77574;BME280;66710;48.868;9.080;2023-04-03T10:25:43;98910.34;;;5.69;50.08
77574;BME280;66710;48.868;9.080;2023-04-03T10:31:48;98909.44;;;5.43;51.62
77574;BME280;66710;48.868;9.080;2023-04-03T10:34:24;98917.44;;;5.63;53.20
77574;BME280;66710;48.868;9.080;2023-04-03T10:37:18;98911.28;;;5.81;51.76
77574;BME280;66710;48.868;9.080;2023-04-03T10:42:34;98908.03;;;6.04;49.80
77574;BME280;66710;48.868;9.080;2023-04-03T10:45:18;98900.47;;;5.81;50.31
77574;BME280;66710;48.868;9.080;2023-04-03T10:50:38;98902.66;;;5.66;51.15
77574;BME280;66710;48.868;9.080;2023-04-03T10:58:39;98909.41;;;5.82;51.18
77574;BME280;66710;48.868;9.080;2023-04-03T11:01:27;98906.44;;;6.22;50.21
77574;BME280;66710;48.868;9.080;2023-04-03T11:03:58;98899.97;;;5.98;49.88
77574;BME280;66710;48.868;9.080;2023-04-03T11:06:26;98900.00;;;5.59;48.89
77574;BME280;66710;48.868;9.080;2023-04-03T11:08:57;98904.75;;;5.64;48.90
77574;BME280;66710;48.868;9.080;2023-04-03T11:11:31;98899.00;;;5.54;48.57
77574;BME280;66710;48.868;9.080;2023-04-03T11:14:03;98903.44;;;5.73;50.08
77574;BME280;66710;48.868;9.080;2023-04-03T11:16:34;98897.47;;;5.64;48.67
77574;BME280;66710;48.868;9.080;2023-04-03T11:19:35;98901.63;;;5.67;49.08
77574;BME280;66710;48.868;9.080;2023-04-03T11:24:58;98892.34;;;5.56;46.64
77574;BME280;66710;48.868;9.080;2023-04-03T11:27:25;98893.22;;;5.75;47.97
77574;BME280;66710;48.868;9.080;2023-04-03T11:29:53;98887.75;;;5.57;48.27
77574;BME280;66710;48.868;9.080;2023-04-03T11:35:01;98885.63;;;5.97;52.14
77574;BME280;66710;48.868;9.080;2023-04-03T11:37:29;98890.06;;;5.85;49.02
77574;BME280;66710;48.868;9.080;2023-04-03T11:40:00;98886.44;;;5.91;48.71
77574;BME280;66710;48.868;9.080;2023-04-03T11:42:39;98886.66;;;5.96;48.75
77574;BME280;66710;48.868;9.080;2023-04-03T11:47:54;98891.59;;;6.06;50.47
77574;BME280;66710;48.868;9.080;2023-04-03T11:50:43;98892.69;;;5.98;51.34
77574;BME280;66710;48.868;9.080;2023-04-03T11:58:23;98883.69;;;5.73;49.07
77574;BME280;66710;48.868;9.080;2023-04-03T12:01:06;98876.78;;;5.77;47.70
77574;BME280;66710;48.868;9.080;2023-04-03T12:16:22;98867.72;;;5.64;49.20
77574;BME280;66710;48.868;9.080;2023-04-03T12:21:14;98870.47;;;5.89;48.92
77574;BME280;66710;48.868;9.080;2023-04-03T12:45:40;98847.22;;;5.82;47.17
77574;BME280;66710;48.868;9.080;2023-04-03T12:48:14;98860.03;;;5.93;47.57
77574;BME280;66710;48.868;9.080;2023-04-03T12:50:40;98850.63;;;6.02;46.09
77574;BME280;66710;48.868;9.080;2023-04-03T12:59:19;98836.53;;;7.23;44.12
77574;BME280;66710;48.868;9.080;2023-04-03T13:01:53;98845.66;;;7.40;43.70
77574;BME280;66710;48.868;9.080;2023-04-03T13:04:19;98843.84;;;6.92;45.59
77574;BME280;66710;48.868;9.080;2023-04-03T13:06:45;98842.13;;;6.79;46.09
77574;BME280;66710;48.868;9.080;2023-04-03T13:09:28;98845.88;;;6.41;46.47
77574;BME280;66710;48.868;9.080;2023-04-03T13:11:58;98844.56;;;6.25;46.34
77574;BME280;66710;48.868;9.080;2023-04-03T13:14:27;98844.81;;;6.24;48.59
77574;BME280;66710;48.868;9.080;2023-04-03T13:19:24;98838.03;;;6.15;47.92
77574;BME280;66710;48.868;9.080;2023-04-03T13:21:53;98840.78;;;6.08;47.53
77574;BME280;66710;48.868;9.080;2023-04-03T13:24:21;98841.00;;;6.06;47.39
77574;BME280;66710;48.868;9.080;2023-04-03T13:26:47;98835.81;;;6.05;46.14
77574;BME280;66710;48.868;9.080;2023-04-03T13:29:34;98835.66;;;6.25;48.47
77574;BME280;66710;48.868;9.080;2023-04-03T13:32:01;98833.53;;;6.27;49.30
77574;BME280;66710;48.868;9.080;2023-04-03T13:34:36;98841.53;;;6.59;48.24
77574;BME280;66710;48.868;9.080;2023-04-03T13:37:02;98836.25;;;6.45;46.50
77574;BME280;66710;48.868;9.080;2023-04-03T13:39:32;98826.88;;;6.48;44.97
77574;BME280;66710;48.868;9.080;2023-04-03T13:42:00;98826.19;;;6.71;46.45
77574;BME280;66710;48.868;9.080;2023-04-03T13:44:31;98824.59;;;6.63;46.05
77574;BME280;66710;48.868;9.080;2023-04-03T13:47:20;98818.50;;;7.17;44.90
77574;BME280;66710;48.868;9.080;2023-04-03T13:50:13;98835.28;;;7.07;45.30
77574;BME280;66710;48.868;9.080;2023-04-03T13:55:18;98834.47;;;7.37;45.58
77574;BME280;66710;48.868;9.080;2023-04-03T13:57:58;98827.22;;;7.19;45.63
77574;BME280;66710;48.868;9.080;2023-04-03T14:00:54;98828.91;;;7.01;43.28
77574;BME280;66710;48.868;9.080;2023-04-03T14:05:50;98822.28;;;6.67;44.62
77574;BME280;66710;48.868;9.080;2023-04-03T14:08:16;98822.03;;;6.87;45.76
77574;BME280;66710;48.868;9.080;2023-04-03T14:10:42;98820.53;;;6.54;43.78
77574;BME280;66710;48.868;9.080;2023-04-03T14:13:13;98817.97;;;6.78;43.95
77574;BME280;66710;48.868;9.080;2023-04-03T14:15:38;98816.03;;;6.48;45.43
77574;BME280;66710;48.868;9.080;2023-04-03T14:18:03;98817.81;;;6.73;46.46
77574;BME280;66710;48.868;9.080;2023-04-03T14:20:29;98821.66;;;6.28;44.89
77574;BME280;66710;48.868;9.080;2023-04-03T14:22:55;98824.66;;;6.20;44.06
77574;BME280;66710;48.868;9.080;2023-04-03T14:25:21;98810.47;;;6.43;46.14
77574;BME280;66710;48.868;9.080;2023-04-03T14:27:50;98813.41;;;6.41;44.55
77574;BME280;66710;48.868;9.080;2023-04-03T14:30:23;98816.78;;;6.37;44.02
77574;BME280;66710;48.868;9.080;2023-04-03T14:32:48;98808.44;;;6.38;43.83
77574;BME280;66710;48.868;9.080;2023-04-03T14:35:15;98810.75;;;6.72;44.25
77574;BME280;66710;48.868;9.080;2023-04-03T14:37:41;98806.22;;;6.84;44.57
77574;BME280;66710;48.868;9.080;2023-04-03T14:40:08;98812.13;;;6.62;43.22
77574;BME280;66710;48.868;9.080;2023-04-03T14:42:36;98815.03;;;6.61;43.62
77574;BME280;66710;48.868;9.080;2023-04-03T14:45:05;98814.44;;;6.59;43.64
77574;BME280;66710;48.868;9.080;2023-04-03T14:47:31;98812.88;;;6.33;43.81
77574;BME280;66710;48.868;9.080;2023-04-03T14:49:58;98805.94;;;6.18;45.80
77574;BME280;66710;48.868;9.080;2023-04-03T14:52:29;98806.84;;;6.31;44.40
77574;BME280;66710;48.868;9.080;2023-04-03T14:54:55;98804.59;;;6.28;43.28
77574;BME280;66710;48.868;9.080;2023-04-03T14:57:23;98806.47;;;6.27;43.48
77574;BME280;66710;48.868;9.080;2023-04-03T14:59:49;98793.94;;;6.33;43.91
77574;BME280;66710;48.868;9.080;2023-04-03T15:02:28;98799.88;;;6.23;44.38